createdAt,value
2023-02-09T00:02:40.086Z,650.42
2023-02-09T00:05:43.263Z,650.05
2023-02-09T00:08:46.663Z,627.40
2023-02-09T00:12:08.871Z,546.30
2023-02-09T00:15:12.333Z,650.28
2023-02-09T00:18:15.545Z,622.88
2023-02-09T00:21:18.751Z,598.72
2023-02-09T00:24:22.236Z,637.63
2023-02-09T00:27:27.060Z,690.90
2023-02-09T00:30:30.369Z,652.15
2023-02-09T00:33:33.642Z,612.05
2023-02-09T00:36:37.243Z,537.97
2023-02-09T00:39:40.428Z,593.13
2023-02-09T00:42:44.987Z,477.70
2023-02-09T00:45:48.622Z,477.13
2023-02-09T00:48:51.946Z,572.33
2023-02-09T00:51:55.698Z,502.33
2023-02-09T00:54:58.893Z,621.45
2023-02-09T00:58:04.187Z,614.60
2023-02-09T01:01:07.654Z,684.35
2023-02-09T01:04:11.017Z,683.30
2023-02-09T01:07:14.412Z,686.88
2023-02-09T01:10:17.918Z,680.72
2023-02-09T01:13:22.596Z,594.22
2023-02-09T01:16:28.613Z,568.22
2023-02-09T01:19:32.366Z,676.63
2023-02-09T01:22:39.013Z,580.10
2023-02-09T01:25:42.256Z,685.38
2023-02-09T01:28:52.222Z,611.72
2023-02-09T01:31:55.701Z,594.03
2023-02-09T01:34:59.526Z,463.83
2023-02-09T01:38:02.829Z,471.50
2023-02-09T01:41:06.368Z,451.00
2023-02-09T01:44:43.136Z,473.30
2023-02-09T01:47:51.989Z,455.60
2023-02-09T01:50:59.294Z,427.73
2023-02-09T01:54:07.366Z,476.02
2023-02-09T01:57:13.340Z,499.25
2023-02-09T02:00:21.410Z,449.83
2023-02-09T02:03:27.796Z,439.20
2023-02-09T02:06:32.623Z,442.33
2023-02-09T02:09:35.953Z,670.83
2023-02-09T02:12:40.382Z,466.27
2023-02-09T02:15:54.984Z,460.90
2023-02-09T02:19:30.020Z,521.45
2023-02-09T02:22:59.409Z,448.58
2023-02-09T02:26:44.958Z,448.40
2023-02-09T02:30:30.278Z,452.63
2023-02-09T02:33:43.181Z,453.63
2023-02-09T02:36:53.469Z,469.13
2023-02-09T02:40:06.839Z,485.98
2023-02-09T02:43:18.174Z,482.15
2023-02-09T02:46:30.203Z,447.02
2023-02-09T02:49:41.114Z,581.85
2023-02-09T02:52:48.216Z,577.60
2023-02-09T02:55:52.595Z,562.53
2023-02-09T02:58:58.852Z,593.05
2023-02-09T03:02:06.327Z,687.88
2023-02-09T03:05:12.249Z,640.20
2023-02-09T03:08:15.518Z,544.03
2023-02-09T03:11:20.307Z,634.22
2023-02-09T03:14:37.321Z,621.17
2023-02-09T03:17:49.271Z,617.15
2023-02-09T03:20:58.035Z,677.47
2023-02-09T03:24:05.766Z,695.75
2023-02-09T03:27:17.549Z,642.03
2023-02-09T03:30:22.939Z,678.85
2023-02-09T03:33:28.827Z,595.28
2023-02-09T03:36:36.948Z,646.83
2023-02-09T03:39:40.381Z,618.03
2023-02-09T03:42:43.674Z,525.55
2023-02-09T03:45:46.897Z,463.17
2023-02-09T03:48:50.653Z,422.30
2023-02-09T03:51:55.663Z,415.65
2023-02-09T03:54:58.874Z,310.63
2023-02-09T03:58:02.112Z,439.75
2023-02-09T04:01:07.652Z,323.67
2023-02-09T04:04:10.909Z,423.02
2023-02-09T04:07:15.636Z,314.77
2023-02-09T04:10:19.098Z,382.20
2023-02-09T04:13:22.298Z,351.50
2023-02-09T04:16:25.752Z,311.15
2023-02-09T04:19:28.994Z,397.73
2023-02-09T04:22:33.628Z,416.35
2023-02-09T04:25:36.870Z,492.70
2023-02-09T04:28:40.078Z,422.50
2023-02-09T04:31:43.318Z,303.83
2023-02-09T04:34:46.570Z,422.88
2023-02-09T04:37:51.182Z,387.27
2023-02-09T04:40:56.002Z,423.58
2023-02-09T04:43:59.238Z,270.30
2023-02-09T04:47:02.448Z,358.83
2023-02-09T04:50:06.128Z,359.20
2023-02-09T04:53:11.087Z,427.70
2023-02-09T04:56:16.221Z,487.88
2023-02-09T04:59:39.002Z,533.88
2023-02-09T05:02:42.290Z,545.35
2023-02-09T05:05:45.514Z,331.95
2023-02-09T05:08:50.172Z,369.88
2023-02-09T05:11:53.397Z,276.25
2023-02-09T05:14:56.626Z,398.73
2023-02-09T05:17:59.809Z,412.38
2023-02-09T05:21:03.085Z,474.77
2023-02-09T05:24:08.314Z,457.35
2023-02-09T05:27:11.569Z,429.13
2023-02-09T05:30:15.126Z,399.77
2023-02-09T05:33:18.344Z,292.67
2023-02-09T05:36:21.729Z,333.95
2023-02-09T05:39:26.382Z,350.92
2023-02-09T05:42:29.683Z,425.13
2023-02-09T05:45:32.910Z,409.35
2023-02-09T05:48:36.298Z,287.63
2023-02-09T05:51:39.627Z,242.43
2023-02-09T05:54:44.237Z,254.85
2023-02-09T05:57:47.477Z,252.98
2023-02-09T06:00:50.874Z,333.30
2023-02-09T06:03:54.231Z,328.35
2023-02-09T06:06:57.850Z,258.05
2023-02-09T06:10:03.136Z,282.17
2023-02-09T06:13:06.416Z,363.83
2023-02-09T06:16:09.771Z,375.60
2023-02-09T06:19:14.943Z,353.48
2023-02-09T06:22:18.155Z,403.42
2023-02-09T06:25:22.753Z,298.30
2023-02-09T06:28:26.093Z,259.08
2023-02-09T06:31:29.703Z,257.77
2023-02-09T06:34:33.050Z,309.27
2023-02-09T06:37:36.529Z,338.27
2023-02-09T06:40:41.164Z,386.05
2023-02-09T06:43:44.422Z,364.23
2023-02-09T06:46:47.812Z,292.42
2023-02-09T06:49:51.036Z,271.17
2023-02-09T06:52:54.484Z,335.48
2023-02-09T06:56:02.534Z,249.13
2023-02-09T06:59:05.749Z,216.70
2023-02-09T07:02:11.253Z,289.65
2023-02-09T07:05:15.924Z,227.00
2023-02-09T07:08:19.136Z,249.85
2023-02-09T07:11:23.734Z,262.67
2023-02-09T07:14:27.348Z,288.55
2023-02-09T07:17:30.898Z,285.13
2023-02-09T07:20:34.264Z,315.88
2023-02-09T07:23:37.730Z,332.13
2023-02-09T07:26:42.728Z,219.70
2023-02-09T07:29:46.072Z,249.10
2023-02-09T07:32:49.281Z,291.40
2023-02-09T07:35:52.566Z,357.30
2023-02-09T07:38:56.559Z,243.75
2023-02-09T07:42:01.399Z,325.50
2023-02-09T07:45:22.581Z,299.52
2023-02-09T07:48:25.918Z,320.20
2023-02-09T07:51:29.786Z,338.80
2023-02-09T07:54:33.298Z,340.27
2023-02-09T07:57:37.966Z,337.38
2023-02-09T08:00:41.169Z,433.35
2023-02-09T08:03:46.934Z,406.30
2023-02-09T08:06:50.405Z,363.25
2023-02-09T08:09:53.668Z,372.80
2023-02-09T08:13:00.824Z,482.42
2023-02-09T08:16:06.894Z,347.65
2023-02-09T08:19:13.471Z,333.02
2023-02-09T08:22:16.945Z,316.48
2023-02-09T08:25:23.618Z,337.85
2023-02-09T08:28:42.917Z,336.98
2023-02-09T08:31:47.217Z,357.67
2023-02-09T08:34:50.542Z,292.77
2023-02-09T08:37:53.825Z,300.58
2023-02-09T08:40:57.248Z,245.60
2023-02-09T08:44:02.291Z,246.20
2023-02-09T08:47:05.597Z,274.48
2023-02-09T08:50:09.500Z,277.55
2023-02-09T08:53:12.732Z,243.68
2023-02-09T08:56:15.890Z,258.05
2023-02-09T08:59:20.447Z,251.02
2023-02-09T09:02:23.645Z,256.30
2023-02-09T09:05:26.977Z,208.52
2023-02-09T09:08:30.876Z,202.80
2023-02-09T09:11:34.168Z,228.57
2023-02-09T09:14:39.389Z,171.90
2023-02-09T09:17:43.702Z,169.32
2023-02-09T09:20:46.944Z,169.35
2023-02-09T09:23:50.211Z,162.32
2023-02-09T09:26:53.441Z,160.90
2023-02-09T09:29:58.001Z,146.98
2023-02-09T09:33:01.864Z,128.23
2023-02-09T09:36:07.172Z,125.70
2023-02-09T09:39:10.418Z,129.43
2023-02-09T09:42:21.375Z,174.60
2023-02-09T09:45:28.980Z,119.55
2023-02-09T09:48:41.989Z,125.03
2023-02-09T09:51:48.970Z,122.18
2023-02-09T09:54:52.949Z,147.20
2023-02-09T09:57:59.336Z,122.47
2023-02-09T10:01:03.996Z,126.07
2023-02-09T10:04:14.039Z,155.65
2023-02-09T10:07:22.718Z,192.80
2023-02-09T10:10:39.823Z,142.63
2023-02-09T10:13:47.390Z,150.48
2023-02-09T10:16:52.214Z,161.63
2023-02-09T10:20:03.034Z,124.70
2023-02-09T10:23:06.241Z,147.82
2023-02-09T10:26:23.681Z,86.68
2023-02-09T10:29:27.973Z,108.15
2023-02-09T10:32:39.921Z,111.03
2023-02-09T10:35:46.178Z,104.68
2023-02-09T10:38:51.660Z,160.40
2023-02-09T10:41:57.363Z,296.80
2023-02-09T10:45:11.159Z,113.80
2023-02-09T10:48:20.596Z,95.88
2023-02-09T10:51:29.123Z,67.70
2023-02-09T10:54:32.647Z,68.78
2023-02-09T10:57:37.757Z,70.78
2023-02-09T11:00:49.885Z,85.07
2023-02-09T11:04:04.709Z,67.43
2023-02-09T11:07:13.701Z,68.72
2023-02-09T11:10:17.526Z,81.97
2023-02-09T11:13:24.909Z,70.80
2023-02-09T11:16:53.889Z,63.17
2023-02-09T11:20:33.678Z,72.55
2023-02-09T11:23:49.678Z,62.67
2023-02-09T11:26:58.069Z,69.47
2023-02-09T11:30:16.268Z,74.80
2023-02-09T11:33:27.607Z,74.50
2023-02-09T11:36:47.005Z,80.57
2023-02-09T11:39:57.532Z,89.35
2023-02-09T11:43:11.912Z,83.05
2023-02-09T11:46:18.840Z,135.70
2023-02-09T11:49:28.117Z,96.57
2023-02-09T11:52:37.555Z,133.93
2023-02-09T11:55:43.925Z,93.13
2023-02-09T11:58:53.718Z,70.65
2023-02-09T12:02:02.530Z,69.57
2023-02-09T12:05:06.976Z,111.50
2023-02-09T12:08:27.228Z,109.57
2023-02-09T12:11:45.312Z,100.03
2023-02-09T12:15:14.811Z,131.90
2023-02-09T12:18:19.979Z,83.97
2023-02-09T12:21:32.355Z,67.20
2023-02-09T12:24:41.146Z,60.88
2023-02-09T12:28:05.095Z,65.50
2023-02-09T12:31:12.032Z,67.25
2023-02-09T12:34:29.624Z,69.13
2023-02-09T12:37:34.938Z,72.78
2023-02-09T12:40:39.495Z,66.78
2023-02-09T12:43:45.142Z,62.63
2023-02-09T12:46:52.819Z,81.53
2023-02-09T12:50:04.278Z,59.47
2023-02-09T12:53:44.029Z,59.40
2023-02-09T12:56:48.839Z,58.30
2023-02-09T13:00:31.085Z,69.82
2023-02-09T13:03:41.768Z,69.60
2023-02-09T13:06:48.572Z,93.88
2023-02-09T13:09:55.427Z,82.50
2023-02-09T13:13:05.024Z,84.35
2023-02-09T13:16:42.906Z,73.68
2023-02-09T13:19:59.782Z,82.97
2023-02-09T13:23:17.986Z,74.90
2023-02-09T13:26:24.352Z,67.00
2023-02-09T13:29:30.411Z,70.15
2023-02-09T13:32:45.780Z,78.97
2023-02-09T13:36:08.916Z,66.18
2023-02-09T13:39:23.601Z,65.75
2023-02-09T13:42:28.563Z,62.55
2023-02-09T13:45:33.544Z,65.45
2023-02-09T13:48:39.166Z,107.28
2023-02-09T13:51:42.616Z,68.50
2023-02-09T13:54:46.023Z,156.55
2023-02-09T13:57:58.025Z,69.05
2023-02-09T14:01:06.070Z,70.38
2023-02-09T14:04:17.565Z,71.32
2023-02-09T14:07:23.815Z,74.97
2023-02-09T14:10:28.828Z,111.18
2023-02-09T14:13:37.358Z,74.75
2023-02-09T14:16:53.033Z,109.45
2023-02-09T14:19:59.078Z,69.05
2023-02-09T14:23:03.334Z,147.10
2023-02-09T14:26:08.866Z,77.63
2023-02-09T14:29:17.920Z,75.90
2023-02-09T14:32:33.769Z,80.82
2023-02-09T14:35:40.832Z,102.90
2023-02-09T14:38:47.045Z,161.63
2023-02-09T14:42:03.805Z,128.18
2023-02-09T14:45:31.264Z,138.35
2023-02-09T14:48:36.340Z,139.95
2023-02-09T14:51:39.794Z,135.82
2023-02-09T14:54:48.958Z,158.07
2023-02-09T14:57:53.218Z,164.50
2023-02-09T15:00:59.428Z,170.77
2023-02-09T15:04:04.709Z,168.02
2023-02-09T15:07:08.235Z,158.52
2023-02-09T15:10:21.239Z,162.10
2023-02-09T15:13:27.614Z,205.23
2023-02-09T15:16:31.642Z,169.07
2023-02-09T15:19:37.684Z,173.27
2023-02-09T15:22:42.888Z,173.25
2023-02-09T15:25:46.708Z,179.35
2023-02-09T15:28:50.680Z,192.40
2023-02-09T15:31:55.262Z,191.45
2023-02-09T15:34:59.979Z,221.27
2023-02-09T15:38:03.687Z,284.17
2023-02-09T15:41:24.707Z,254.10
2023-02-09T15:44:45.403Z,233.88
2023-02-09T15:47:56.331Z,259.85
2023-02-09T15:51:01.600Z,250.07
2023-02-09T15:54:08.661Z,262.90
2023-02-09T15:57:13.402Z,251.85
2023-02-09T16:00:19.037Z,255.40
2023-02-09T16:03:23.438Z,257.13
2023-02-09T16:06:31.407Z,261.90
2023-02-09T16:09:35.817Z,245.10
2023-02-09T16:12:40.026Z,255.38
2023-02-09T16:15:43.598Z,259.08
2023-02-09T16:18:47.856Z,252.77
2023-02-09T16:21:58.711Z,255.95
2023-02-09T16:25:02.195Z,275.85
2023-02-09T16:28:05.686Z,278.75
2023-02-09T16:31:10.378Z,314.02
2023-02-09T16:34:15.588Z,321.00
2023-02-09T16:37:26.464Z,315.20
2023-02-09T16:40:31.483Z,295.77
2023-02-09T16:43:35.621Z,321.42
2023-02-09T16:46:39.690Z,314.63
2023-02-09T16:49:46.102Z,324.35
2023-02-09T16:52:52.066Z,321.15
2023-02-09T16:55:55.945Z,335.35
2023-02-09T16:58:59.195Z,341.88
2023-02-09T17:02:02.685Z,346.33
2023-02-09T17:05:20.147Z,338.67
2023-02-09T17:08:26.894Z,334.60
2023-02-09T17:11:30.681Z,360.98
2023-02-09T17:14:35.085Z,352.10
2023-02-09T17:17:38.830Z,296.13
2023-02-09T17:20:44.502Z,292.45
2023-02-09T17:23:49.224Z,317.35
2023-02-09T17:26:52.516Z,329.92
2023-02-09T17:29:55.767Z,315.13
2023-02-09T17:33:01.943Z,295.67
2023-02-09T17:39:31.005Z,302.23
2023-02-09T17:42:38.837Z,315.60
2023-02-09T17:45:47.715Z,296.80
2023-02-09T17:48:51.245Z,315.13
2023-02-09T17:51:54.716Z,318.77
2023-02-09T17:55:01.323Z,312.33
2023-02-09T17:58:04.575Z,307.42
2023-02-09T18:01:21.451Z,312.60
2023-02-09T18:04:27.231Z,305.73
2023-02-09T18:07:30.454Z,310.80
2023-02-09T18:10:35.836Z,316.70
2023-02-09T18:13:39.163Z,340.83
2023-02-09T18:16:42.751Z,334.65
2023-02-09T18:19:46.659Z,323.10
2023-02-09T18:22:50.304Z,279.90
2023-02-09T18:25:54.906Z,261.70
2023-02-09T18:28:58.356Z,226.48
2023-02-09T18:32:04.119Z,239.93
2023-02-09T18:35:17.039Z,233.48
2023-02-09T18:38:20.363Z,241.35
2023-02-09T18:41:25.785Z,281.75
2023-02-09T18:44:31.335Z,300.65
2023-02-09T18:47:36.387Z,252.63
2023-02-09T18:50:40.261Z,250.93
2023-02-09T18:53:43.618Z,256.08
2023-02-09T18:56:48.254Z,358.92
2023-02-09T18:59:51.915Z,280.02
2023-02-09T19:02:57.658Z,231.98
2023-02-09T19:06:02.253Z,220.50
2023-02-09T19:09:05.749Z,208.05
2023-02-09T19:12:13.213Z,229.02
2023-02-09T19:15:18.369Z,174.68
2023-02-09T19:18:22.372Z,192.77
2023-02-09T19:21:27.193Z,209.88
2023-02-09T19:24:32.542Z,201.70
2023-02-09T19:27:38.508Z,200.95
2023-02-09T19:30:42.802Z,191.07
2023-02-09T19:33:46.448Z,223.43
2023-02-09T19:36:50.364Z,206.50
2023-02-09T19:40:04.040Z,196.18
2023-02-09T19:43:16.128Z,228.13
2023-02-09T19:46:19.533Z,233.18
2023-02-09T19:49:22.992Z,211.23
2023-02-09T19:52:27.693Z,219.80
2023-02-09T19:55:31.158Z,207.13
2023-02-09T19:58:39.062Z,203.63
2023-02-09T20:01:43.789Z,218.60
2023-02-09T20:04:47.312Z,217.35
2023-02-09T20:07:52.927Z,236.95
2023-02-09T20:10:57.125Z,220.52
2023-02-09T20:14:03.152Z,220.57
2023-02-09T20:17:06.636Z,253.57
2023-02-09T20:20:10.484Z,257.50
2023-02-09T20:23:15.598Z,256.42
2023-02-09T20:26:22.852Z,255.65
2023-02-09T20:29:28.217Z,210.48
2023-02-09T20:32:32.255Z,275.80
2023-02-09T20:35:35.729Z,234.80
2023-02-09T20:38:40.040Z,204.27
2023-02-09T20:42:05.601Z,293.60
2023-02-09T20:45:32.586Z,211.45
2023-02-09T20:48:36.624Z,228.18
2023-02-09T20:51:40.190Z,186.02
2023-02-09T20:54:43.737Z,189.80
2023-02-09T20:57:47.253Z,185.68
2023-02-09T21:00:56.697Z,205.52
2023-02-09T21:04:02.027Z,228.95
2023-02-09T21:07:08.894Z,231.23
2023-02-09T21:10:16.313Z,265.58
2023-02-09T21:13:21.290Z,277.30
2023-02-09T21:16:26.498Z,230.15
2023-02-09T21:19:30.408Z,223.07
2023-02-09T21:22:33.917Z,217.65
2023-02-09T21:25:37.777Z,217.25
2023-02-09T21:28:41.245Z,195.85
2023-02-09T21:31:47.534Z,363.08
2023-02-09T21:34:51.137Z,354.83
2023-02-09T21:37:58.887Z,265.70
2023-02-09T21:41:02.488Z,301.20
2023-02-09T21:44:06.440Z,395.65
2023-02-09T21:47:12.517Z,195.25
2023-02-09T21:50:21.094Z,250.55
2023-02-09T21:53:24.956Z,215.25
2023-02-09T21:56:32.248Z,206.15
2023-02-09T21:59:37.023Z,258.52
2023-02-09T22:02:42.812Z,234.13
2023-02-09T22:05:46.067Z,225.10
2023-02-09T22:08:49.391Z,205.57
2023-02-09T22:11:52.614Z,213.10
2023-02-09T22:14:55.991Z,271.48
2023-02-09T22:18:01.172Z,290.15
2023-02-09T22:21:07.612Z,232.00
2023-02-09T22:24:16.500Z,228.98
2023-02-09T22:27:19.904Z,366.75
2023-02-09T22:30:23.150Z,234.40
2023-02-09T22:33:27.710Z,357.35
2023-02-09T22:36:30.943Z,254.13
2023-02-09T22:39:34.431Z,321.98
2023-02-09T22:42:37.752Z,268.60
2023-02-09T22:45:41.092Z,210.00
2023-02-09T22:48:45.840Z,210.13
2023-02-09T22:51:50.469Z,193.02
2023-02-09T22:54:53.907Z,217.93
2023-02-09T22:57:57.105Z,283.80
2023-02-09T23:01:00.336Z,265.17
2023-02-09T23:04:05.115Z,225.00
2023-02-09T23:07:08.386Z,179.90
2023-02-09T23:10:11.633Z,208.20
2023-02-09T23:13:14.849Z,182.43
2023-02-09T23:16:20.681Z,182.43
2023-02-09T23:19:25.422Z,189.68
2023-02-09T23:22:28.660Z,215.40
2023-02-09T23:25:31.858Z,195.30
2023-02-09T23:28:35.120Z,223.82
2023-02-09T23:31:38.662Z,184.07
2023-02-09T23:34:43.320Z,220.25
2023-02-09T23:37:46.540Z,246.55
2023-02-09T23:40:49.819Z,283.70
2023-02-09T23:43:54.100Z,179.93
2023-02-09T23:46:57.403Z,218.90
2023-02-09T23:50:01.972Z,208.32
2023-02-09T23:53:05.250Z,321.92
2023-02-09T23:56:09.084Z,205.52
2023-02-09T23:59:15.692Z,192.82
